createdAt,value
2023-03-16T00:01:36.904Z,5.19
2023-03-16T00:04:06.411Z,5.20
2023-03-16T00:06:34.355Z,5.16
2023-03-16T00:09:02.288Z,5.15
2023-03-16T00:11:30.696Z,5.13
2023-03-16T00:13:58.868Z,5.04
2023-03-16T00:16:26.839Z,5.07
2023-03-16T00:18:54.754Z,4.99
2023-03-16T00:21:24.049Z,4.96
2023-03-16T00:23:53.484Z,4.93
2023-03-16T00:26:22.543Z,4.97
2023-03-16T00:28:54.308Z,5.01
2023-03-16T00:31:25.095Z,5.02
2023-03-16T00:33:53.154Z,5.04
2023-03-16T00:36:23.204Z,5.02
2023-03-16T00:38:51.493Z,4.96
2023-03-16T00:41:19.465Z,4.96
2023-03-16T00:43:48.955Z,4.97
2023-03-16T00:46:18.988Z,4.99
2023-03-16T00:48:48.310Z,5.02
2023-03-16T00:51:18.733Z,4.96
2023-03-16T00:53:48.689Z,4.83
2023-03-16T00:56:18.003Z,4.87
2023-03-16T00:58:45.976Z,4.89
2023-03-16T01:01:16.897Z,4.89
2023-03-16T01:03:44.848Z,4.83
2023-03-16T01:06:15.242Z,4.74
2023-03-16T01:08:43.223Z,4.77
2023-03-16T01:11:16.523Z,4.75
2023-03-16T01:13:47.143Z,4.76
2023-03-16T01:16:15.950Z,4.74
2023-03-16T01:18:43.905Z,4.75
2023-03-16T01:21:14.012Z,4.74
2023-03-16T01:23:44.158Z,4.74
2023-03-16T01:26:15.292Z,4.69
2023-03-16T01:28:44.534Z,4.66
2023-03-16T01:31:15.445Z,4.69
2023-03-16T01:33:44.489Z,4.68
2023-03-16T01:36:17.666Z,4.69
2023-03-16T01:38:54.125Z,4.68
2023-03-16T01:41:24.237Z,4.68
2023-03-16T01:43:53.742Z,4.71
2023-03-16T01:46:25.013Z,4.75
2023-03-16T01:49:09.212Z,4.66
2023-03-16T01:51:44.026Z,4.42
2023-03-16T01:54:19.430Z,4.22
2023-03-16T01:56:55.334Z,4.22
2023-03-16T01:59:27.260Z,4.38
2023-03-16T02:01:56.263Z,4.52
2023-03-16T02:04:33.851Z,4.50
2023-03-16T02:07:04.712Z,4.45
2023-03-16T02:09:33.164Z,4.44
2023-03-16T02:12:03.039Z,4.45
2023-03-16T02:14:33.206Z,4.42
2023-03-16T02:17:01.222Z,4.48
2023-03-16T02:19:42.791Z,4.46
2023-03-16T02:22:11.817Z,4.43
2023-03-16T02:24:39.723Z,4.42
2023-03-16T02:27:11.840Z,4.44
2023-03-16T02:29:55.371Z,4.40
2023-03-16T02:32:25.516Z,4.43
2023-03-16T02:34:53.616Z,4.45
2023-03-16T02:37:21.989Z,4.46
2023-03-16T02:39:50.320Z,4.40
2023-03-16T02:42:22.951Z,4.38
2023-03-16T02:44:56.926Z,4.37
2023-03-16T02:47:35.740Z,4.36
2023-03-16T02:50:06.756Z,4.35
2023-03-16T02:52:35.244Z,4.40
2023-03-16T02:55:03.756Z,4.36
2023-03-16T02:57:31.732Z,4.25
2023-03-16T03:00:11.637Z,4.23
2023-03-16T03:02:40.473Z,4.23
2023-03-16T03:05:08.997Z,4.18
2023-03-16T03:07:37.846Z,4.16
2023-03-16T03:10:08.944Z,4.14
2023-03-16T03:12:36.970Z,4.14
2023-03-16T03:15:11.182Z,4.07
2023-03-16T03:17:47.413Z,4.05
2023-03-16T03:20:17.571Z,4.02
2023-03-16T03:22:47.648Z,4.12
2023-03-16T03:25:18.402Z,4.14
2023-03-16T03:27:47.691Z,4.15
2023-03-16T03:30:21.163Z,4.18
2023-03-16T03:32:49.607Z,4.17
2023-03-16T03:35:20.159Z,4.09
2023-03-16T03:37:48.388Z,4.04
2023-03-16T03:40:19.743Z,3.97
2023-03-16T03:42:51.395Z,4.01
2023-03-16T03:45:20.827Z,4.00
2023-03-16T03:47:48.778Z,4.02
2023-03-16T03:50:21.094Z,3.99
2023-03-16T03:53:09.069Z,3.92
2023-03-16T03:55:49.931Z,3.94
2023-03-16T03:58:18.041Z,3.95
2023-03-16T04:00:47.518Z,3.97
2023-03-16T04:03:16.315Z,3.99
2023-03-16T04:05:46.256Z,4.00
2023-03-16T04:08:14.170Z,3.99
2023-03-16T04:10:42.437Z,3.98
2023-03-16T04:13:10.362Z,4.01
2023-03-16T04:15:39.498Z,4.02
2023-03-16T04:18:14.117Z,3.94
2023-03-16T04:20:43.205Z,3.93
2023-03-16T04:23:16.635Z,3.91
2023-03-16T04:25:45.470Z,3.94
2023-03-16T04:28:18.069Z,3.95
2023-03-16T04:30:48.895Z,3.97
2023-03-16T04:33:27.739Z,3.95
2023-03-16T04:35:56.189Z,3.98
2023-03-16T04:38:25.346Z,4.03
2023-03-16T04:40:56.803Z,3.96
2023-03-16T04:43:28.877Z,3.91
2023-03-16T04:46:04.164Z,3.88
2023-03-16T04:48:34.103Z,3.87
2023-03-16T04:51:04.105Z,3.81
2023-03-16T04:53:34.424Z,3.78
2023-03-16T04:56:10.461Z,3.76
2023-03-16T04:58:38.614Z,3.75
2023-03-16T05:01:08.182Z,3.81
2023-03-16T05:03:37.592Z,3.85
2023-03-16T05:06:05.795Z,3.86
2023-03-16T05:08:35.949Z,3.82
2023-03-16T05:11:03.956Z,3.61
2023-03-16T05:13:36.299Z,3.22
2023-03-16T05:16:06.122Z,3.19
2023-03-16T05:18:40.190Z,3.33
2023-03-16T05:21:08.229Z,3.43
2023-03-16T05:23:56.410Z,3.38
2023-03-16T05:26:25.505Z,3.42
2023-03-16T05:28:53.613Z,3.48
2023-03-16T05:31:26.616Z,3.51
2023-03-16T05:34:00.370Z,3.57
2023-03-16T05:36:28.333Z,3.71
2023-03-16T05:39:02.173Z,3.64
2023-03-16T05:41:37.847Z,3.58
2023-03-16T05:44:13.691Z,3.58
2023-03-16T05:47:05.177Z,3.62
2023-03-16T05:49:37.290Z,3.75
2023-03-16T05:52:10.201Z,3.82
2023-03-16T05:54:38.331Z,3.59
2023-03-16T05:57:07.090Z,3.66
2023-03-16T05:59:36.250Z,3.74
2023-03-16T06:02:05.343Z,3.82
2023-03-16T06:04:33.726Z,3.83
2023-03-16T06:07:03.259Z,3.85
2023-03-16T06:09:31.878Z,3.93
2023-03-16T06:12:00.540Z,3.97
2023-03-16T06:14:30.281Z,4.09
2023-03-16T06:16:58.473Z,4.11
2023-03-16T06:19:26.538Z,4.08
2023-03-16T06:21:59.638Z,4.10
2023-03-16T06:24:30.110Z,4.08
2023-03-16T06:26:58.031Z,4.05
2023-03-16T06:29:32.355Z,3.81
2023-03-16T06:32:01.732Z,3.81
2023-03-16T06:34:30.507Z,3.90
2023-03-16T06:36:58.602Z,4.00
2023-03-16T06:39:26.927Z,3.91
2023-03-16T06:41:56.912Z,3.94
2023-03-16T06:44:25.107Z,4.01
2023-03-16T06:47:10.454Z,4.40
2023-03-16T06:49:38.498Z,4.46
2023-03-16T06:52:15.018Z,4.57
2023-03-16T06:54:43.083Z,4.63
2023-03-16T06:57:13.977Z,4.60
2023-03-16T06:59:41.924Z,4.58
2023-03-16T07:02:12.030Z,4.58
2023-03-16T07:04:40.490Z,4.54
2023-03-16T07:07:08.732Z,4.37
2023-03-16T07:09:39.642Z,4.32
2023-03-16T07:12:09.555Z,4.46
2023-03-16T07:14:40.369Z,4.68
2023-03-16T07:17:11.437Z,4.82
2023-03-16T07:19:39.540Z,4.96
2023-03-16T07:22:07.743Z,5.07
2023-03-16T07:24:39.177Z,5.21
2023-03-16T07:27:07.311Z,5.37
2023-03-16T07:29:35.540Z,5.46
2023-03-16T07:32:07.168Z,5.51
2023-03-16T07:34:39.165Z,5.67
2023-03-16T07:37:09.170Z,5.70
2023-03-16T07:39:38.418Z,5.76
2023-03-16T07:42:11.277Z,5.86
2023-03-16T07:44:50.597Z,5.96
2023-03-16T07:47:21.290Z,6.09
2023-03-16T07:49:50.714Z,6.09
2023-03-16T07:52:19.089Z,6.18
2023-03-16T07:54:48.852Z,6.17
2023-03-16T07:57:17.018Z,6.04
2023-03-16T07:59:45.642Z,5.85
2023-03-16T08:02:18.233Z,5.65
2023-03-16T08:04:48.244Z,5.77
2023-03-16T08:07:17.382Z,6.01
2023-03-16T08:10:12.226Z,6.31
2023-03-16T08:12:52.675Z,6.46
2023-03-16T08:15:21.618Z,6.55
2023-03-16T08:17:52.475Z,6.63
2023-03-16T08:20:26.548Z,6.65
2023-03-16T08:22:55.141Z,6.71
2023-03-16T08:25:27.809Z,6.81
2023-03-16T08:28:10.725Z,6.90
2023-03-16T08:30:45.872Z,6.97
2023-03-16T08:33:26.111Z,7.09
2023-03-16T08:35:56.085Z,7.02
2023-03-16T08:38:24.285Z,7.00
2023-03-16T08:40:53.473Z,7.11
2023-03-16T08:43:24.012Z,7.18
2023-03-16T08:45:53.867Z,7.32
2023-03-16T08:48:25.953Z,7.37
2023-03-16T08:50:55.428Z,7.53
2023-03-16T08:53:23.408Z,7.56
2023-03-16T08:55:51.877Z,7.43
2023-03-16T08:58:19.969Z,7.39
2023-03-16T09:00:50.205Z,7.38
2023-03-16T09:03:18.416Z,7.40
2023-03-16T09:05:46.352Z,7.55
2023-03-16T09:08:15.667Z,7.67
2023-03-16T09:10:43.573Z,7.72
2023-03-16T09:13:11.585Z,7.74
2023-03-16T09:15:40.438Z,7.81
2023-03-16T09:18:08.351Z,7.88
2023-03-16T09:20:36.573Z,7.77
2023-03-16T09:23:04.941Z,7.79
2023-03-16T09:25:34.209Z,7.91
2023-03-16T09:28:02.132Z,7.73
2023-03-16T09:30:30.315Z,7.85
2023-03-16T09:32:58.484Z,7.93
2023-03-16T09:35:26.773Z,8.02
2023-03-16T09:38:05.686Z,8.15
2023-03-16T09:40:38.210Z,8.07
2023-03-16T09:43:24.921Z,8.05
2023-03-16T09:46:01.779Z,8.18
2023-03-16T09:48:31.772Z,8.34
2023-03-16T09:51:01.681Z,8.38
2023-03-16T09:53:31.446Z,8.44
2023-03-16T09:56:05.231Z,8.54
2023-03-16T09:58:33.328Z,8.71
2023-03-16T10:01:10.109Z,8.68
2023-03-16T10:03:59.079Z,8.78
2023-03-16T10:06:27.916Z,8.81
2023-03-16T10:09:04.986Z,8.85
2023-03-16T10:11:38.490Z,8.84
2023-03-16T10:14:17.709Z,8.67
2023-03-16T10:16:51.340Z,8.47
2023-03-16T10:19:23.502Z,8.50
2023-03-16T10:21:56.009Z,8.54
2023-03-16T10:24:41.110Z,8.63
2023-03-16T10:27:20.503Z,8.90
2023-03-16T10:29:48.852Z,9.03
2023-03-16T10:32:20.004Z,8.90
2023-03-16T10:34:54.980Z,8.94
2023-03-16T10:37:25.455Z,8.95
2023-03-16T10:39:54.938Z,8.72
2023-03-16T10:42:27.131Z,8.62
2023-03-16T10:45:01.771Z,8.63
2023-03-16T10:47:32.909Z,8.85
2023-03-16T10:50:11.587Z,8.97
2023-03-16T10:52:42.970Z,9.08
2023-03-16T10:55:16.974Z,8.98
2023-03-16T10:57:51.394Z,9.00
2023-03-16T11:00:23.296Z,9.28
2023-03-16T11:02:53.681Z,9.46
2023-03-16T11:05:32.725Z,9.75
2023-03-16T11:08:03.713Z,9.97
2023-03-16T11:10:40.447Z,10.05
2023-03-16T11:13:18.870Z,10.08
2023-03-16T11:15:52.030Z,9.98
2023-03-16T11:18:39.759Z,9.96
2023-03-16T11:21:14.132Z,9.94
2023-03-16T11:23:49.825Z,9.94
2023-03-16T11:26:25.316Z,10.00
2023-03-16T11:29:03.655Z,9.91
2023-03-16T11:31:42.712Z,9.98
2023-03-16T11:34:17.660Z,10.05
2023-03-16T11:36:51.364Z,10.25
2023-03-16T11:39:32.277Z,10.39
2023-03-16T11:42:13.197Z,10.50
2023-03-16T11:44:51.546Z,10.52
2023-03-16T11:47:49.111Z,10.67
2023-03-16T11:50:23.298Z,10.77
2023-03-16T11:53:02.420Z,10.79
2023-03-16T11:55:40.891Z,10.82
2023-03-16T11:58:29.220Z,10.95
2023-03-16T12:01:08.727Z,11.07
2023-03-16T12:04:02.939Z,11.19
2023-03-16T12:06:47.065Z,11.21
2023-03-16T12:09:48.204Z,11.31
2023-03-16T12:12:29.584Z,11.53
2023-03-16T12:15:16.548Z,11.29
2023-03-16T12:17:48.064Z,11.15
2023-03-16T12:20:21.271Z,11.18
2023-03-16T12:22:53.646Z,11.33
2023-03-16T12:25:24.836Z,11.46
2023-03-16T12:27:55.548Z,11.55
2023-03-16T12:30:36.205Z,11.36
2023-03-16T12:33:13.757Z,11.49
2023-03-16T12:35:47.878Z,11.41
2023-03-16T12:38:23.769Z,11.45
2023-03-16T12:41:01.151Z,11.66
2023-03-16T12:43:47.633Z,11.91
2023-03-16T12:46:27.065Z,12.14
2023-03-16T12:49:00.318Z,11.98
2023-03-16T12:51:35.692Z,11.84
2023-03-16T12:54:05.681Z,11.89
2023-03-16T12:56:36.739Z,11.89
2023-03-16T12:59:07.615Z,11.92
2023-03-16T13:01:40.128Z,11.94
2023-03-16T13:04:14.275Z,12.00
2023-03-16T13:06:47.500Z,12.09
2023-03-16T13:09:21.580Z,12.26
2023-03-16T13:11:51.268Z,12.50
2023-03-16T13:14:35.721Z,12.54
2023-03-16T13:17:23.836Z,12.49
2023-03-16T13:20:08.941Z,12.23
2023-03-16T13:22:47.353Z,12.40
2023-03-16T13:25:18.774Z,12.67
2023-03-16T13:27:49.597Z,12.74
2023-03-16T13:30:20.645Z,12.74
2023-03-16T13:32:49.625Z,12.67
2023-03-16T13:35:20.517Z,12.67
2023-03-16T13:37:49.800Z,12.81
2023-03-16T13:40:20.789Z,12.97
2023-03-16T13:42:52.894Z,12.99
2023-03-16T13:45:24.237Z,13.13
2023-03-16T13:47:52.603Z,13.29
2023-03-16T13:50:22.165Z,13.45
2023-03-16T13:52:58.738Z,13.65
2023-03-16T13:55:32.739Z,13.84
2023-03-16T13:58:01.812Z,14.10
2023-03-16T14:00:34.658Z,14.24
2023-03-16T14:03:12.863Z,14.26
2023-03-16T14:05:42.169Z,14.22
2023-03-16T14:08:17.058Z,14.32
2023-03-16T14:10:46.801Z,14.26
2023-03-16T14:13:36.292Z,14.28
2023-03-16T14:16:12.977Z,14.30
2023-03-16T14:18:43.691Z,14.47
2023-03-16T14:21:17.826Z,14.42
2023-03-16T14:23:49.308Z,14.52
2023-03-16T14:26:19.416Z,14.60
2023-03-16T14:28:57.496Z,14.54
2023-03-16T14:31:33.619Z,14.50
2023-03-16T14:34:03.845Z,14.48
2023-03-16T14:36:38.662Z,14.54
2023-03-16T14:39:14.356Z,14.64
2023-03-16T14:41:42.406Z,14.76
2023-03-16T14:44:21.589Z,14.95
2023-03-16T14:46:50.716Z,14.91
2023-03-16T14:49:22.107Z,14.72
2023-03-16T14:51:54.832Z,14.74
2023-03-16T14:54:23.920Z,14.77
2023-03-16T14:56:54.339Z,14.59
2023-03-16T14:59:23.012Z,14.61
2023-03-16T15:01:53.559Z,14.60
2023-03-16T15:04:27.902Z,14.52
2023-03-16T15:06:58.270Z,14.35
2023-03-16T15:09:32.766Z,14.43
2023-03-16T15:12:00.804Z,14.70
2023-03-16T15:14:42.713Z,15.04
2023-03-16T15:17:11.019Z,15.16
2023-03-16T15:19:38.919Z,15.05
2023-03-16T15:22:08.808Z,14.98
2023-03-16T15:24:37.241Z,14.87
2023-03-16T15:27:09.929Z,14.95
2023-03-16T15:29:38.222Z,15.14
2023-03-16T15:32:08.155Z,15.28
2023-03-16T15:34:36.114Z,15.44
2023-03-16T15:37:04.442Z,15.38
2023-03-16T15:39:33.860Z,15.30
2023-03-16T15:42:01.815Z,15.10
2023-03-16T15:44:29.680Z,15.14
2023-03-16T15:46:57.645Z,15.28
2023-03-16T15:49:27.047Z,15.40
2023-03-16T15:51:56.497Z,15.56
2023-03-16T15:54:24.698Z,15.74
2023-03-16T15:56:56.009Z,15.52
2023-03-16T15:59:27.137Z,15.04
2023-03-16T16:01:55.045Z,14.86
2023-03-16T16:04:25.111Z,14.91
2023-03-16T16:06:55.435Z,15.06
2023-03-16T16:09:24.148Z,15.14
2023-03-16T16:11:53.644Z,15.14
2023-03-16T16:14:25.967Z,15.06
2023-03-16T16:16:54.917Z,14.96
2023-03-16T16:19:22.991Z,14.97
2023-03-16T16:21:50.894Z,15.02
2023-03-16T16:24:19.335Z,14.94
2023-03-16T16:26:54.424Z,14.75
2023-03-16T16:29:27.179Z,14.71
2023-03-16T16:31:55.428Z,14.82
2023-03-16T16:34:25.587Z,14.86
2023-03-16T16:36:53.959Z,14.82
2023-03-16T16:39:22.157Z,14.68
2023-03-16T16:41:52.259Z,14.67
2023-03-16T16:44:23.618Z,14.73
2023-03-16T16:46:53.715Z,14.79
2023-03-16T16:49:24.827Z,14.76
2023-03-16T16:51:53.678Z,14.64
2023-03-16T16:54:23.352Z,14.54
2023-03-16T16:56:53.897Z,14.54
2023-03-16T16:59:23.777Z,14.52
2023-03-16T17:01:54.413Z,14.49
2023-03-16T17:04:24.875Z,14.62
2023-03-16T17:06:55.741Z,14.68
2023-03-16T17:09:24.329Z,14.65
2023-03-16T17:11:52.319Z,14.80
2023-03-16T17:14:21.778Z,14.71
2023-03-16T17:16:51.664Z,14.62
2023-03-16T17:19:23.303Z,14.49
2023-03-16T17:21:52.229Z,14.52
2023-03-16T17:24:20.109Z,14.48
2023-03-16T17:26:52.292Z,14.43
2023-03-16T17:29:24.355Z,14.26
2023-03-16T17:31:52.916Z,14.08
2023-03-16T17:34:23.999Z,13.97
2023-03-16T17:36:52.438Z,13.71
2023-03-16T17:39:21.767Z,13.42
2023-03-16T17:41:52.363Z,13.13
2023-03-16T17:44:21.438Z,12.87
2023-03-16T17:46:49.803Z,12.64
2023-03-16T17:49:20.705Z,12.42
2023-03-16T17:51:50.060Z,12.24
2023-03-16T17:54:18.072Z,12.10
2023-03-16T17:56:46.665Z,11.94
2023-03-16T17:59:18.823Z,11.85
2023-03-16T18:01:47.958Z,11.70
2023-03-16T18:04:17.753Z,11.56
2023-03-16T18:06:47.602Z,11.46
2023-03-16T18:09:17.917Z,11.46
2023-03-16T18:11:48.285Z,11.39
2023-03-16T18:14:25.406Z,11.28
2023-03-16T18:16:54.612Z,11.18
2023-03-16T18:19:25.380Z,11.12
2023-03-16T18:21:54.214Z,11.03
2023-03-16T18:24:26.587Z,10.94
2023-03-16T18:26:55.312Z,10.88
2023-03-16T18:29:24.108Z,10.92
2023-03-16T18:31:56.188Z,10.90
2023-03-16T18:34:28.806Z,10.84
2023-03-16T18:36:59.723Z,10.78
2023-03-16T18:39:29.066Z,10.70
2023-03-16T18:41:57.054Z,10.66
2023-03-16T18:44:26.824Z,10.62
2023-03-16T18:47:01.773Z,10.58
2023-03-16T18:49:34.097Z,10.59
2023-03-16T18:52:02.102Z,10.57
2023-03-16T18:54:35.575Z,10.56
2023-03-16T18:57:04.809Z,10.57
2023-03-16T18:59:32.812Z,10.60
2023-03-16T19:02:00.963Z,10.58
2023-03-16T19:04:32.696Z,10.51
2023-03-16T19:07:00.830Z,10.38
2023-03-16T19:09:33.199Z,10.35
2023-03-16T19:12:03.707Z,10.34
2023-03-16T19:14:34.598Z,10.28
2023-03-16T19:17:02.571Z,10.30
2023-03-16T19:19:30.494Z,10.27
2023-03-16T19:22:03.436Z,10.22
2023-03-16T19:24:36.514Z,10.11
2023-03-16T19:27:05.411Z,10.04
2023-03-16T19:29:35.642Z,9.99
2023-03-16T19:32:03.707Z,10.00
2023-03-16T19:34:31.796Z,10.02
2023-03-16T19:36:59.711Z,10.03
2023-03-16T19:39:27.862Z,10.00
2023-03-16T19:41:59.440Z,9.99
2023-03-16T19:44:29.357Z,9.96
2023-03-16T19:46:59.164Z,9.96
2023-03-16T19:49:29.385Z,9.95
2023-03-16T19:51:57.793Z,9.92
2023-03-16T19:54:27.632Z,9.92
2023-03-16T19:57:00.336Z,9.97
2023-03-16T19:59:33.916Z,9.98
2023-03-16T20:02:02.326Z,9.91
2023-03-16T20:04:30.686Z,9.90
2023-03-16T20:06:58.630Z,9.82
2023-03-16T20:09:27.442Z,9.76
2023-03-16T20:11:55.329Z,9.68
2023-03-16T20:14:30.731Z,9.60
2023-03-16T20:16:59.135Z,9.58
2023-03-16T20:19:27.068Z,9.56
2023-03-16T20:21:54.999Z,9.55
2023-03-16T20:24:23.306Z,9.58
2023-03-16T20:26:53.598Z,9.51
2023-03-16T20:29:28.485Z,9.46
2023-03-16T20:31:56.955Z,9.39
2023-03-16T20:34:27.204Z,9.36
2023-03-16T20:36:55.868Z,9.34
2023-03-16T20:39:23.814Z,9.33
2023-03-16T20:41:52.723Z,9.37
2023-03-16T20:44:23.570Z,9.45
2023-03-16T20:46:52.931Z,9.52
2023-03-16T20:49:32.772Z,9.47
2023-03-16T20:52:00.717Z,9.43
2023-03-16T20:54:28.615Z,9.40
2023-03-16T20:56:56.592Z,9.43
2023-03-16T20:59:26.555Z,9.42
2023-03-16T21:01:56.378Z,9.41
2023-03-16T21:04:27.298Z,9.43
2023-03-16T21:06:57.595Z,9.43
2023-03-16T21:09:25.711Z,9.40
2023-03-16T21:11:53.590Z,9.32
2023-03-16T21:14:24.402Z,9.32
2023-03-16T21:16:54.244Z,9.33
2023-03-16T21:19:24.902Z,9.30
2023-03-16T21:21:53.149Z,9.25
2023-03-16T21:24:21.190Z,9.18
2023-03-16T21:26:49.202Z,9.10
2023-03-16T21:29:21.253Z,9.10
2023-03-16T21:31:49.556Z,9.09
2023-03-16T21:34:26.196Z,9.11
2023-03-16T21:36:54.200Z,9.10
2023-03-16T21:39:25.156Z,9.06
2023-03-16T21:41:53.574Z,9.03
2023-03-16T21:44:21.840Z,9.01
2023-03-16T21:46:49.892Z,9.05
2023-03-16T21:49:18.064Z,8.98
2023-03-16T21:51:47.735Z,9.01
2023-03-16T21:54:16.908Z,9.00
2023-03-16T21:56:45.925Z,8.96
2023-03-16T21:59:13.874Z,8.94
2023-03-16T22:01:58.249Z,8.94
2023-03-16T22:04:26.640Z,8.96
2023-03-16T22:06:55.929Z,8.96
2023-03-16T22:09:24.970Z,8.95
2023-03-16T22:11:52.905Z,8.97
2023-03-16T22:14:20.861Z,8.92
2023-03-16T22:16:48.763Z,8.84
2023-03-16T22:19:17.936Z,8.86
2023-03-16T22:21:48.455Z,8.78
2023-03-16T22:24:19.715Z,8.77
2023-03-16T22:26:49.044Z,8.82
2023-03-16T22:29:25.361Z,8.80
2023-03-16T22:31:56.964Z,8.75
2023-03-16T22:34:29.853Z,8.60
2023-03-16T22:36:58.628Z,8.62
2023-03-16T22:39:28.009Z,8.62
2023-03-16T22:41:55.942Z,8.57
2023-03-16T22:44:24.918Z,8.54
2023-03-16T22:46:52.972Z,8.57
2023-03-16T22:49:23.873Z,8.61
2023-03-16T22:51:53.793Z,8.68
2023-03-16T22:54:25.416Z,8.71
2023-03-16T22:56:54.983Z,8.67
2023-03-16T22:59:26.160Z,8.65
2023-03-16T23:01:54.255Z,8.61
2023-03-16T23:04:24.516Z,8.63
2023-03-16T23:06:54.664Z,8.61
2023-03-16T23:09:23.372Z,8.59
2023-03-16T23:11:54.242Z,8.54
2023-03-16T23:14:25.225Z,8.54
2023-03-16T23:16:53.604Z,8.52
2023-03-16T23:19:25.361Z,8.49
2023-03-16T23:21:54.750Z,8.51
2023-03-16T23:24:22.939Z,8.59
2023-03-16T23:26:52.046Z,8.56
2023-03-16T23:29:20.818Z,8.47
2023-03-16T23:31:50.394Z,8.40
2023-03-16T23:34:20.088Z,8.36
2023-03-16T23:36:48.045Z,8.38
2023-03-16T23:39:16.167Z,8.39
2023-03-16T23:41:46.785Z,8.36
2023-03-16T23:44:17.716Z,8.45
2023-03-16T23:46:45.903Z,8.51
2023-03-16T23:49:20.337Z,8.53
2023-03-16T23:51:48.277Z,8.51
2023-03-16T23:54:19.479Z,8.49
2023-03-16T23:56:47.578Z,8.49
2023-03-16T23:59:16.429Z,8.54
